Time;durP1;ratioP1;P1;durP2;ratioP2;P2;SDS_P1;SDS_P2;PMS_P1;PMS_P2;Temp;Humidity;BMP_temperature;BMP_pressure;BME280_temperature;BME280_humidity;BME280_pressure;Samples;Min_cycle;Max_cycle;Signal;HPM_P1;HPM_P2
2023/01/23 00:01:15;;;;;;;13.50;7.67;;;3.50;99.90;;;;;;4992084;28;20526;-81
2023/01/23 00:03:42;;;;;;;20.70;8.30;;;3.50;99.90;;;;;;4994040;28;20236;-81
2023/01/23 00:06:11;;;;;;;10.60;7.30;;;3.50;99.90;;;;;;4996188;28;20200;-82
2023/01/23 00:08:39;;;;;;;11.10;7.17;;;3.60;99.90;;;;;;4996064;28;20507;-82
2023/01/23 00:11:09;;;;;;;14.83;7.93;;;3.50;99.90;;;;;;4996402;28;20192;-80
2023/01/23 00:13:37;;;;;;;14.83;7.87;;;3.60;99.90;;;;;;4996416;28;20295;-81
2023/01/23 00:16:05;;;;;;;10.07;7.03;;;3.60;99.90;;;;;;4995794;28;20204;-81
2023/01/23 00:18:32;;;;;;;17.83;8.37;;;3.60;99.90;;;;;;5010452;28;20585;-82
2023/01/23 00:20:59;;;;;;;13.10;7.77;;;3.50;99.90;;;;;;5010121;28;20206;-80
2023/01/23 00:23:26;;;;;;;19.07;8.83;;;3.50;99.90;;;;;;4995345;28;20199;-81
2023/01/23 00:25:52;;;;;;;15.70;8.03;;;3.50;99.90;;;;;;4995816;28;20619;-81
2023/01/23 00:28:21;;;;;;;13.07;7.57;;;3.50;99.90;;;;;;4995972;28;20200;-79
2023/01/23 00:30:48;;;;;;;14.77;8.23;;;3.50;99.90;;;;;;5004938;28;20614;-82
2023/01/23 00:33:15;;;;;;;13.47;8.77;;;3.50;99.90;;;;;;5015798;28;20311;-80
2023/01/23 00:35:41;;;;;;;14.90;8.20;;;3.60;99.90;;;;;;5014792;28;20191;-81
2023/01/23 00:38:08;;;;;;;13.23;8.20;;;3.60;99.90;;;;;;4994726;28;20214;-82
2023/01/23 00:40:35;;;;;;;12.13;8.10;;;3.50;99.90;;;;;;4998675;28;20199;-84
2023/01/23 00:43:02;;;;;;;15.67;8.80;;;3.60;99.90;;;;;;4996270;28;20504;-82
2023/01/23 00:45:30;;;;;;;15.60;8.67;;;3.50;99.90;;;;;;4994998;28;20231;-83
2023/01/23 00:47:57;;;;;;;12.50;7.87;;;3.50;99.90;;;;;;4995655;28;20311;-83
2023/01/23 00:50:24;;;;;;;18.70;8.77;;;3.50;99.90;;;;;;4996099;28;20210;-79
2023/01/23 00:52:51;;;;;;;16.67;9.77;;;3.50;99.90;;;;;;4995531;28;20283;-84
2023/01/23 00:55:18;;;;;;;12.13;8.33;;;3.50;99.90;;;;;;4995939;28;20287;-84
2023/01/23 00:57:44;;;;;;;17.43;8.27;;;3.50;99.90;;;;;;4994753;28;20211;-78
2023/01/23 01:00:12;;;;;;;14.30;8.80;;;3.40;99.90;;;;;;5006169;28;20286;-82
2023/01/23 01:02:40;;;;;;;18.90;9.20;;;3.40;99.90;;;;;;5014392;28;20205;-80
2023/01/23 01:05:08;;;;;;;13.00;8.23;;;3.40;99.90;;;;;;5013531;28;20250;-84
2023/01/23 01:07:35;;;;;;;17.40;8.93;;;3.40;99.90;;;;;;5013983;28;20245;-81
2023/01/23 01:10:02;;;;;;;15.37;9.07;;;3.30;99.90;;;;;;5016012;28;20211;-85
2023/01/23 01:12:29;;;;;;;13.87;8.27;;;3.40;99.90;;;;;;5002773;28;20195;-82
2023/01/23 01:14:55;;;;;;;15.77;8.80;;;3.40;99.90;;;;;;4995790;28;20200;-84
2023/01/23 01:17:22;;;;;;;16.47;9.27;;;3.40;99.90;;;;;;4996608;28;20200;-85
2023/01/23 01:19:51;;;;;;;14.80;9.27;;;3.30;99.90;;;;;;5000013;28;20303;-84
2023/01/23 01:22:18;;;;;;;17.80;8.27;;;3.30;99.90;;;;;;5015926;28;20209;-85
2023/01/23 01:24:45;;;;;;;14.40;9.23;;;3.30;99.90;;;;;;5015645;28;20223;-83
2023/01/23 01:27:12;;;;;;;15.17;9.57;;;3.30;99.90;;;;;;5016012;28;20306;-86
2023/01/23 01:29:38;;;;;;;15.73;9.50;;;3.20;99.90;;;;;;5015299;28;20211;-86
2023/01/23 01:32:05;;;;;;;16.47;8.90;;;3.30;99.90;;;;;;5015290;28;20227;-81
2023/01/23 01:34:32;;;;;;;18.50;9.93;;;3.30;99.90;;;;;;5015380;28;20287;-85
2023/01/23 01:37:01;;;;;;;18.47;9.53;;;3.30;99.90;;;;;;5014311;28;20203;-84
2023/01/23 01:39:28;;;;;;;18.43;9.90;;;3.30;99.90;;;;;;5014733;28;20493;-83
2023/01/23 01:41:55;;;;;;;15.90;9.47;;;3.30;99.90;;;;;;4995485;28;20527;-83
2023/01/23 01:44:24;;;;;;;17.77;9.50;;;3.20;99.90;;;;;;4994311;28;20208;-84
2023/01/23 01:46:51;;;;;;;20.47;10.30;;;3.30;99.90;;;;;;4994270;28;20226;-85
2023/01/23 01:49:22;;;;;;;16.87;9.50;;;3.30;99.90;;;;;;4994139;28;20208;-82
2023/01/23 01:51:55;;;;;;;20.07;9.53;;;3.30;99.90;;;;;;4994835;28;20196;-83
2023/01/23 01:54:28;;;;;;;18.07;9.20;;;3.30;99.90;;;;;;4995191;28;20200;-85
2023/01/23 01:57:00;;;;;;;14.43;10.00;;;3.30;99.90;;;;;;4995136;28;20195;-83
2023/01/23 01:59:30;;;;;;;18.37;10.23;;;3.30;99.90;;;;;;4994471;28;20184;-82
2023/01/23 02:02:03;;;;;;;20.03;10.07;;;3.30;99.90;;;;;;5005266;28;20203;-80
2023/01/23 02:04:31;;;;;;;15.97;9.87;;;3.30;99.90;;;;;;5013534;28;20211;-81
2023/01/23 02:07:01;;;;;;;17.97;9.33;;;3.30;99.90;;;;;;5013868;28;20286;-84
2023/01/23 02:09:32;;;;;;;17.87;9.53;;;3.30;99.90;;;;;;5013715;28;20742;-85
2023/01/23 02:11:59;;;;;;;13.23;9.47;;;3.30;99.90;;;;;;5014081;28;20211;-83
2023/01/23 02:14:27;;;;;;;18.33;9.40;;;3.30;99.90;;;;;;5014182;28;20208;-84
2023/01/23 02:16:58;;;;;;;17.87;10.33;;;3.30;99.90;;;;;;5005441;28;20792;-81
2023/01/23 02:19:37;;;;;;;16.97;10.37;;;3.30;99.90;;;;;;4994676;28;20243;-85
2023/01/23 02:22:13;;;;;;;15.77;9.60;;;3.30;99.90;;;;;;4994077;28;20192;-81
2023/01/23 02:24:47;;;;;;;13.13;9.30;;;3.30;99.90;;;;;;4994642;28;20232;-82
2023/01/23 02:27:16;;;;;;;14.83;10.20;;;3.30;99.90;;;;;;4993257;28;20652;-83
2023/01/23 02:29:44;;;;;;;17.20;9.60;;;3.30;99.90;;;;;;4993628;28;20203;-82
2023/01/23 02:32:11;;;;;;;18.57;9.93;;;3.30;99.90;;;;;;4994188;28;20515;-82
2023/01/23 02:34:38;;;;;;;18.70;9.97;;;3.30;99.90;;;;;;4994292;28;20218;-81
2023/01/23 02:37:06;;;;;;;16.73;11.10;;;3.30;99.90;;;;;;4999768;28;20290;-85
2023/01/23 02:39:33;;;;;;;19.20;11.23;;;3.30;99.90;;;;;;5013804;28;20199;-84
2023/01/23 02:42:01;;;;;;;14.33;9.97;;;3.30;99.90;;;;;;5014167;28;20210;-82
2023/01/23 02:44:31;;;;;;;16.67;9.87;;;3.30;99.90;;;;;;5001656;28;20654;-84
2023/01/23 02:47:01;;;;;;;14.57;9.77;;;3.30;99.90;;;;;;4994477;28;20228;-85
2023/01/23 02:49:28;;;;;;;14.30;9.00;;;3.30;99.90;;;;;;5010142;28;20211;-86
2023/01/23 02:51:56;;;;;;;18.40;9.83;;;3.30;99.90;;;;;;4999017;28;20507;-85
2023/01/23 02:54:23;;;;;;;20.97;10.23;;;3.30;99.90;;;;;;4994208;28;20195;-84
2023/01/23 02:56:50;;;;;;;16.37;10.63;;;3.30;99.90;;;;;;4996960;28;20200;-84
2023/01/23 03:02:05;;;;;;;20.07;9.93;;;3.30;99.90;;;;;;5013916;28;20186;-82
2023/01/23 03:04:32;;;;;;;16.47;9.40;;;3.30;99.90;;;;;;5013447;28;20222;-84
2023/01/23 03:06:59;;;;;;;14.67;9.47;;;3.30;99.90;;;;;;5004569;28;20630;-84
2023/01/23 03:09:26;;;;;;;17.73;9.63;;;3.40;99.90;;;;;;4993370;28;20760;-86
2023/01/23 03:11:53;;;;;;;17.07;9.70;;;3.30;99.90;;;;;;4992908;28;20279;-79
2023/01/23 03:14:22;;;;;;;14.40;9.87;;;3.30;99.90;;;;;;5012020;28;20214;-84
2023/01/23 03:16:51;;;;;;;19.43;10.13;;;3.30;99.90;;;;;;5012938;28;20201;-82
2023/01/23 03:19:21;;;;;;;18.83;10.27;;;3.30;99.90;;;;;;5012635;28;20650;-82
2023/01/23 03:21:49;;;;;;;19.67;10.00;;;3.30;99.90;;;;;;5009819;28;20519;-85
2023/01/23 03:24:16;;;;;;;22.90;10.57;;;3.30;99.90;;;;;;4993511;28;20226;-80
2023/01/23 03:26:45;;;;;;;19.47;9.80;;;3.30;99.90;;;;;;4992743;28;20215;-81
2023/01/23 03:32:01;;;;;;;14.53;10.20;;;3.30;99.90;;;;;;4972622;28;20247;-84
2023/01/23 03:34:30;;;;;;;19.73;9.70;;;3.30;99.90;;;;;;4993450;28;20207;-83
2023/01/23 03:36:58;;;;;;;16.80;10.43;;;3.30;99.90;;;;;;4992968;28;20204;-84
2023/01/23 03:42:09;;;;;;;13.20;10.03;;;3.30;99.90;;;;;;4997638;28;20194;-84
2023/01/23 03:44:36;;;;;;;17.50;10.30;;;3.30;99.90;;;;;;4997797;28;20241;-85
2023/01/23 03:47:04;;;;;;;15.57;10.00;;;3.30;99.90;;;;;;5016814;28;20231;-83
2023/01/23 03:49:32;;;;;;;23.33;10.50;;;3.30;99.90;;;;;;5016778;28;20207;-84
2023/01/23 03:52:00;;;;;;;20.00;12.03;;;3.30;99.90;;;;;;5017172;28;20242;-82
2023/01/23 03:54:27;;;;;;;14.43;11.40;;;3.30;99.90;;;;;;5016709;28;20294;-85
2023/01/23 03:56:54;;;;;;;16.57;10.00;;;3.30;99.90;;;;;;5016707;28;20199;-84
2023/01/23 03:59:21;;;;;;;17.13;11.17;;;3.30;99.90;;;;;;5016376;28;20207;-81
2023/01/23 04:01:47;;;;;;;17.93;11.27;;;3.30;99.90;;;;;;5015996;28;20234;-81
2023/01/23 04:04:14;;;;;;;20.93;11.87;;;3.40;99.90;;;;;;5016378;28;20622;-81
2023/01/23 04:06:43;;;;;;;14.80;10.10;;;3.40;99.90;;;;;;5015540;28;20223;-82
2023/01/23 04:09:10;;;;;;;16.10;10.43;;;3.40;99.90;;;;;;5015847;28;20282;-81
2023/01/23 04:11:37;;;;;;;19.80;11.00;;;3.40;99.90;;;;;;5015765;28;20203;-81
2023/01/23 04:14:04;;;;;;;20.83;11.37;;;3.40;99.90;;;;;;5015590;28;20635;-80
2023/01/23 04:16:31;;;;;;;17.70;10.00;;;3.40;99.90;;;;;;5015613;28;20199;-82
2023/01/23 04:18:58;;;;;;;22.23;10.77;;;3.40;99.90;;;;;;5015705;28;20407;-80
2023/01/23 04:21:25;;;;;;;15.50;10.40;;;3.40;99.90;;;;;;5013126;28;20203;-81
2023/01/23 04:23:53;;;;;;;14.07;10.13;;;3.40;99.90;;;;;;4996110;28;20200;-82
2023/01/23 04:26:20;;;;;;;17.70;11.30;;;3.40;99.90;;;;;;4996048;28;20724;-79
2023/01/23 04:28:47;;;;;;;15.33;11.00;;;3.40;99.90;;;;;;5013812;28;20637;-80
2023/01/23 04:31:14;;;;;;;13.60;10.10;;;3.40;99.90;;;;;;5015740;28;20207;-82
2023/01/23 04:33:40;;;;;;;16.37;9.97;;;3.40;99.90;;;;;;4996240;28;20222;-82
2023/01/23 04:36:08;;;;;;;17.67;11.93;;;3.40;99.90;;;;;;4994369;28;20200;-82
2023/01/23 04:38:35;;;;;;;20.57;12.20;;;3.40;99.90;;;;;;4995568;28;20287;-81
2023/01/23 04:41:04;;;;;;;18.27;12.17;;;3.40;99.90;;;;;;4995367;28;20207;-81
2023/01/23 04:43:31;;;;;;;16.10;9.93;;;3.40;99.90;;;;;;4995037;28;20206;-80
2023/01/23 04:45:59;;;;;;;13.77;10.17;;;3.50;99.90;;;;;;4995039;28;20590;-81
2023/01/23 04:48:26;;;;;;;16.67;10.87;;;3.40;99.90;;;;;;4995583;28;20203;-80
2023/01/23 04:50:53;;;;;;;17.00;10.73;;;3.50;99.90;;;;;;4995267;28;20287;-82
2023/01/23 04:53:20;;;;;;;19.60;11.13;;;3.40;99.90;;;;;;4995809;28;20499;-82
2023/01/23 04:55:48;;;;;;;20.63;11.30;;;3.40;99.90;;;;;;4995633;28;20488;-80
2023/01/23 04:58:18;;;;;;;19.67;10.50;;;3.50;99.90;;;;;;4995215;28;20207;-85
2023/01/23 05:00:45;;;;;;;19.27;11.60;;;3.50;99.90;;;;;;5000391;28;20214;-81
2023/01/23 05:03:13;;;;;;;20.10;11.73;;;3.50;99.90;;;;;;5015218;28;20203;-79
2023/01/23 05:05:41;;;;;;;18.73;11.03;;;3.50;99.90;;;;;;5014883;28;20227;-81
2023/01/23 05:08:08;;;;;;;18.77;11.80;;;3.50;99.90;;;;;;4999144;28;20204;-84
2023/01/23 05:10:35;;;;;;;16.60;10.83;;;3.50;99.90;;;;;;4995162;28;20282;-80
2023/01/23 05:13:02;;;;;;;17.33;10.87;;;3.50;99.90;;;;;;5008520;28;20238;-84
2023/01/23 05:15:30;;;;;;;15.33;10.97;;;3.50;99.90;;;;;;5014807;28;20235;-82
2023/01/23 05:17:57;;;;;;;17.90;11.60;;;3.50;99.90;;;;;;5014242;28;20217;-80
2023/01/23 05:20:24;;;;;;;19.70;11.63;;;3.50;99.90;;;;;;5014647;28;20318;-81
2023/01/23 05:22:52;;;;;;;22.23;12.00;;;3.50;99.90;;;;;;5014873;28;20219;-82
2023/01/23 05:25:20;;;;;;;17.93;10.90;;;3.50;99.90;;;;;;5013290;28;20310;-81
2023/01/23 05:27:47;;;;;;;24.33;12.37;;;3.50;99.90;;;;;;5016462;28;20210;-80
2023/01/23 05:30:15;;;;;;;16.67;11.83;;;3.50;99.90;;;;;;5014373;28;20278;-80
2023/01/23 05:32:43;;;;;;;20.90;11.77;;;3.50;99.90;;;;;;5013262;28;20238;-80
2023/01/23 05:35:10;;;;;;;24.40;12.47;;;3.50;99.90;;;;;;5011466;28;20283;-80
2023/01/23 05:37:37;;;;;;;24.43;12.60;;;3.50;99.90;;;;;;4994682;28;20220;-80
2023/01/23 05:40:07;;;;;;;26.73;13.93;;;3.50;99.90;;;;;;4994164;28;20580;-80
2023/01/23 05:42:33;;;;;;;19.73;12.50;;;3.50;99.90;;;;;;4999661;28;20204;-80
2023/01/23 05:45:00;;;;;;;20.10;13.40;;;3.50;99.90;;;;;;5013680;28;20542;-82
2023/01/23 05:47:27;;;;;;;19.03;12.23;;;3.50;99.90;;;;;;5013516;28;20235;-81
2023/01/23 05:49:56;;;;;;;19.33;11.80;;;3.50;99.90;;;;;;5013862;28;20286;-80
2023/01/23 05:52:23;;;;;;;22.17;12.30;;;3.50;99.90;;;;;;5013507;28;20681;-81
2023/01/23 05:54:50;;;;;;;17.97;12.17;;;3.50;99.90;;;;;;5013461;28;20563;-82
2023/01/23 05:57:17;;;;;;;21.30;12.80;;;3.50;99.90;;;;;;5010016;28;20211;-81
2023/01/23 05:59:44;;;;;;;21.60;13.07;;;3.50;99.90;;;;;;4994387;28;20203;-81
2023/01/23 06:02:11;;;;;;;18.67;13.20;;;3.50;99.90;;;;;;4993880;28;20223;-80
2023/01/23 06:04:38;;;;;;;20.67;12.60;;;3.50;99.90;;;;;;5003328;28;20207;-80
2023/01/23 06:07:09;;;;;;;21.17;12.13;;;3.50;99.90;;;;;;5012784;28;20231;-82
2023/01/23 06:09:36;;;;;;;17.87;12.53;;;3.60;99.90;;;;;;5013001;28;20278;-83
2023/01/23 06:12:03;;;;;;;18.27;12.83;;;3.50;99.90;;;;;;5013474;28;20286;-81
2023/01/23 06:14:29;;;;;;;21.37;12.60;;;3.50;99.90;;;;;;5013206;28;20272;-85
2023/01/23 06:16:56;;;;;;;22.53;13.03;;;3.50;99.90;;;;;;5013686;28;20320;-83
2023/01/23 06:19:23;;;;;;;20.37;12.47;;;3.50;99.90;;;;;;5013810;28;20313;-84
2023/01/23 06:21:50;;;;;;;17.43;12.50;;;3.50;99.90;;;;;;5012504;28;20592;-81
2023/01/23 06:24:18;;;;;;;18.70;12.27;;;3.50;99.90;;;;;;5013798;28;20282;-83
2023/01/23 06:26:45;;;;;;;20.77;12.97;;;3.50;99.90;;;;;;5012769;28;20235;-83
2023/01/23 06:29:12;;;;;;;19.83;13.17;;;3.50;99.90;;;;;;5012814;28;20302;-82
2023/01/23 06:31:39;;;;;;;18.43;13.10;;;3.50;99.90;;;;;;5013471;28;20596;-82
2023/01/23 06:34:07;;;;;;;22.90;13.77;;;3.50;99.90;;;;;;4998166;28;20214;-81
2023/01/23 06:36:34;;;;;;;22.83;12.87;;;3.50;99.90;;;;;;4993171;28;20196;-81
2023/01/23 06:39:01;;;;;;;24.87;14.03;;;3.50;99.90;;;;;;4993704;28;20188;-81
2023/01/23 06:41:30;;;;;;;19.47;13.20;;;3.50;99.90;;;;;;5013005;28;20299;-82
2023/01/23 06:43:56;;;;;;;21.67;13.73;;;3.50;99.90;;;;;;5011636;28;20218;-82
2023/01/23 06:46:24;;;;;;;20.53;13.13;;;3.50;99.90;;;;;;5013010;28;20257;-83
2023/01/23 06:48:52;;;;;;;22.97;15.07;;;3.50;99.90;;;;;;5010130;28;20203;-82
2023/01/23 06:51:19;;;;;;;25.57;14.17;;;3.60;99.90;;;;;;4992729;28;20200;-81
2023/01/23 06:53:46;;;;;;;20.73;12.30;;;3.60;99.90;;;;;;4993736;28;20475;-81
2023/01/23 06:56:13;;;;;;;17.73;12.20;;;3.50;99.90;;;;;;4992960;28;20227;-81
2023/01/23 06:58:43;;;;;;;22.70;14.60;;;3.50;99.90;;;;;;4993595;28;20290;-81
2023/01/23 07:01:12;;;;;;;25.73;14.97;;;3.50;99.90;;;;;;4993348;28;20206;-80
2023/01/23 07:03:39;;;;;;;21.67;13.10;;;3.60;99.90;;;;;;4992892;28;20203;-80
2023/01/23 07:06:06;;;;;;;19.70;14.30;;;3.60;99.90;;;;;;4992905;28;20224;-82
2023/01/23 07:08:33;;;;;;;23.93;14.03;;;3.50;99.90;;;;;;4992589;28;20533;-81
2023/01/23 07:11:00;;;;;;;20.57;13.90;;;3.50;99.90;;;;;;4992395;28;20207;-81
2023/01/23 07:13:27;;;;;;;23.33;13.57;;;3.50;99.90;;;;;;4992382;28;21013;-81
2023/01/23 07:15:56;;;;;;;23.40;13.60;;;3.50;99.90;;;;;;4993742;28;20667;-81
2023/01/23 07:18:24;;;;;;;22.80;14.73;;;3.50;99.90;;;;;;4992609;28;20227;-81
2023/01/23 07:20:51;;;;;;;20.03;14.67;;;3.60;99.90;;;;;;4992746;28;20671;-79
2023/01/23 07:23:18;;;;;;;21.90;13.47;;;3.60;99.90;;;;;;4993378;28;20234;-82
2023/01/23 07:25:44;;;;;;;19.13;13.67;;;3.60;99.90;;;;;;4992534;28;20607;-81
2023/01/23 07:28:11;;;;;;;26.37;14.50;;;3.60;99.90;;;;;;4993203;28;20202;-79
2023/01/23 07:30:38;;;;;;;24.60;13.83;;;3.60;99.90;;;;;;5010672;28;20207;-80
2023/01/23 07:33:07;;;;;;;20.23;13.80;;;3.60;99.90;;;;;;5012379;28;20199;-82
2023/01/23 07:35:34;;;;;;;26.13;14.90;;;3.60;99.90;;;;;;5012857;28;20230;-82
2023/01/23 07:38:01;;;;;;;20.30;13.60;;;3.60;99.90;;;;;;5012365;28;20294;-81
2023/01/23 07:40:28;;;;;;;24.13;14.83;;;3.50;99.90;;;;;;5011425;28;20215;-80
2023/01/23 07:42:57;;;;;;;25.63;15.97;;;3.50;99.90;;;;;;4998946;28;20259;-84
2023/01/23 07:45:24;;;;;;;25.30;15.17;;;3.60;99.90;;;;;;4993257;28;20208;-83
2023/01/23 07:47:51;;;;;;;23.90;15.47;;;3.60;99.90;;;;;;4993905;28;20242;-82
2023/01/23 07:50:19;;;;;;;21.87;15.40;;;3.60;99.90;;;;;;4993489;28;20214;-84
2023/01/23 07:52:46;;;;;;;27.43;17.77;;;3.60;99.90;;;;;;5010063;28;20290;-79
2023/01/23 07:55:13;;;;;;;24.50;15.47;;;3.60;99.90;;;;;;5012675;28;20284;-81
2023/01/23 07:57:41;;;;;;;24.00;15.57;;;3.60;99.90;;;;;;5012468;28;20207;-81
2023/01/23 08:00:10;;;;;;;21.77;14.67;;;3.60;99.90;;;;;;5003080;28;20291;-82
2023/01/23 08:02:37;;;;;;;33.43;17.33;;;3.60;99.90;;;;;;4992894;28;20212;-82
2023/01/23 08:05:04;;;;;;;26.43;15.97;;;3.60;99.90;;;;;;4992661;28;20204;-80
2023/01/23 08:07:32;;;;;;;27.13;15.00;;;3.60;99.90;;;;;;5010062;28;20259;-82
2023/01/23 08:09:59;;;;;;;29.57;17.10;;;3.60;99.90;;;;;;5012425;28;20195;-82
2023/01/23 08:12:26;;;;;;;24.40;15.70;;;3.60;99.90;;;;;;5012562;28;20210;-81
2023/01/23 08:14:53;;;;;;;25.97;16.13;;;3.70;99.90;;;;;;5011912;28;20207;-81
2023/01/23 08:17:20;;;;;;;25.93;16.80;;;3.70;99.90;;;;;;5007204;28;20203;-80
2023/01/23 08:19:47;;;;;;;24.97;15.47;;;3.70;99.90;;;;;;5009000;28;20655;-82
2023/01/23 08:22:24;;;;;;;24.30;15.97;;;3.70;99.90;;;;;;5011987;28;20295;-84
2023/01/23 08:24:53;;;;;;;24.67;15.50;;;3.70;99.90;;;;;;5018130;28;20191;-83
2023/01/23 08:27:20;;;;;;;24.20;16.00;;;3.70;99.90;;;;;;5025268;28;20215;-83
2023/01/23 08:29:46;;;;;;;21.37;15.53;;;3.60;99.90;;;;;;5020352;28;20209;-83
2023/01/23 08:32:13;;;;;;;33.63;16.93;;;3.60;99.90;;;;;;5017428;28;20639;-82
2023/01/23 08:34:40;;;;;;;23.97;16.63;;;3.70;99.90;;;;;;5024682;28;20207;-83
2023/01/23 08:37:08;;;;;;;24.87;16.00;;;3.70;99.90;;;;;;5020055;28;20215;-84
2023/01/23 08:39:34;;;;;;;24.13;16.07;;;3.70;99.90;;;;;;5015987;28;20206;-82
2023/01/23 08:42:03;;;;;;;31.50;17.10;;;3.70;99.90;;;;;;5028567;28;20206;-82
2023/01/23 08:44:33;;;;;;;26.67;16.47;;;3.70;99.90;;;;;;5024198;28;20210;-83
2023/01/23 08:47:01;;;;;;;28.53;17.30;;;3.70;99.90;;;;;;5025055;28;20230;-81
2023/01/23 08:49:28;;;;;;;25.73;16.67;;;3.70;99.90;;;;;;5021646;28;20211;-84
2023/01/23 08:51:56;;;;;;;29.43;17.23;;;3.70;99.90;;;;;;5023895;28;20645;-82
2023/01/23 08:54:23;;;;;;;29.53;17.03;;;3.70;99.90;;;;;;5018008;28;20207;-84
2023/01/23 08:56:50;;;;;;;30.23;16.53;;;3.70;99.90;;;;;;5021044;28;20639;-84
2023/01/23 08:59:18;;;;;;;29.63;16.57;;;3.70;99.90;;;;;;5027267;28;20190;-82
2023/01/23 09:01:46;;;;;;;24.80;17.10;;;3.70;99.90;;;;;;5027426;28;20881;-82
2023/01/23 09:04:13;;;;;;;24.83;17.37;;;3.70;99.90;;;;;;5030849;28;20234;-83
2023/01/23 09:06:40;;;;;;;25.53;16.03;;;3.70;99.90;;;;;;5020918;28;20581;-83
2023/01/23 09:09:07;;;;;;;26.23;16.67;;;3.80;99.90;;;;;;5016998;28;20249;-84
2023/01/23 09:11:34;;;;;;;23.23;15.90;;;3.80;99.90;;;;;;5023265;28;20210;-83
2023/01/23 09:14:01;;;;;;;23.73;15.67;;;3.80;99.90;;;;;;5021884;28;20602;-83
2023/01/23 09:16:30;;;;;;;27.77;16.73;;;3.80;99.90;;;;;;5026633;28;20777;-84
2023/01/23 09:18:57;;;;;;;27.23;16.40;;;3.90;99.90;;;;;;5024075;28;20258;-85
2023/01/23 09:21:23;;;;;;;24.83;16.53;;;3.80;99.90;;;;;;5017138;28;20231;-84
2023/01/23 09:23:50;;;;;;;30.10;16.77;;;3.90;99.90;;;;;;5019578;28;20347;-84
2023/01/23 09:26:17;;;;;;;30.47;16.97;;;3.90;99.90;;;;;;5017526;28;20517;-82
2023/01/23 09:28:44;;;;;;;26.53;17.43;;;3.90;99.90;;;;;;5016557;28;20371;-82
2023/01/23 09:31:13;;;;;;;25.77;15.73;;;3.90;99.90;;;;;;5025359;28;20260;-85
2023/01/23 09:33:42;;;;;;;26.93;17.20;;;3.90;99.90;;;;;;5020943;28;20294;-84
2023/01/23 09:36:10;;;;;;;29.17;17.33;;;3.90;99.90;;;;;;5019856;28;20298;-83
2023/01/23 09:38:37;;;;;;;25.87;17.47;;;3.90;99.90;;;;;;5021267;28;20234;-86
2023/01/23 09:41:10;;;;;;;28.47;17.40;;;3.90;99.90;;;;;;5017158;28;20237;-86
2023/01/23 09:43:43;;;;;;;26.40;17.03;;;3.90;99.90;;;;;;5011780;28;20203;-86
2023/01/23 09:46:18;;;;;;;31.70;18.70;;;3.90;99.90;;;;;;5018784;28;20231;-81
2023/01/23 09:48:48;;;;;;;25.90;16.93;;;3.90;99.90;;;;;;5016317;28;20271;-85
2023/01/23 09:51:22;;;;;;;26.77;18.33;;;3.90;99.90;;;;;;5008590;28;20294;-86
2023/01/23 09:53:50;;;;;;;28.67;17.67;;;4.00;99.90;;;;;;5019747;28;20673;-82
2023/01/23 09:56:31;;;;;;;27.80;18.03;;;4.00;99.90;;;;;;5017610;28;20206;-83
2023/01/23 09:59:08;;;;;;;24.93;18.17;;;4.00;99.90;;;;;;5013831;28;20298;-86
2023/01/23 10:01:36;;;;;;;27.70;18.60;;;4.00;99.90;;;;;;5010622;28;20206;-85
2023/01/23 10:04:05;;;;;;;27.67;18.80;;;4.10;99.90;;;;;;5020024;28;20294;-87
2023/01/23 10:06:45;;;;;;;27.00;16.67;;;4.10;99.90;;;;;;5022406;28;20573;-85
2023/01/23 10:09:33;;;;;;;22.30;15.93;;;4.10;99.90;;;;;;5019637;28;20195;-83
2023/01/23 10:12:09;;;;;;;31.87;17.70;;;4.20;99.90;;;;;;5019022;28;20278;-83
2023/01/23 10:15:01;;;;;;;29.90;18.60;;;4.20;99.90;;;;;;5017062;28;20195;-82
2023/01/23 10:17:37;;;;;;;28.63;17.67;;;4.20;99.90;;;;;;5022049;28;20213;-81
2023/01/23 10:20:29;;;;;;;26.43;17.20;;;4.20;99.90;;;;;;5012095;28;20242;-83
2023/01/23 10:23:05;;;;;;;25.77;16.63;;;4.20;99.90;;;;;;5022584;28;20674;-81
2023/01/23 10:25:39;;;;;;;28.70;18.83;;;4.20;99.90;;;;;;5020658;28;20615;-80
2023/01/23 10:28:18;;;;;;;28.40;18.73;;;4.30;99.90;;;;;;5023394;28;20223;-83
2023/01/23 10:30:49;;;;;;;27.03;17.60;;;4.30;99.90;;;;;;5021219;28;20188;-83
2023/01/23 10:33:17;;;;;;;28.80;18.57;;;4.30;99.90;;;;;;5021487;28;20215;-83
2023/01/23 10:35:50;;;;;;;28.93;18.37;;;4.30;99.90;;;;;;5025579;28;20222;-83
2023/01/23 10:38:26;;;;;;;27.90;17.53;;;4.40;99.90;;;;;;5023487;28;20213;-82
2023/01/23 10:43:38;;;;;;;30.83;19.37;;;4.40;99.90;;;;;;5012174;28;20254;-82
2023/01/23 10:46:11;;;;;;;28.40;19.17;;;4.40;99.90;;;;;;5020614;28;20695;-83
2023/01/23 10:48:43;;;;;;;29.03;18.83;;;4.50;99.90;;;;;;5015616;28;20280;-83
2023/01/23 10:51:35;;;;;;;28.37;18.57;;;4.50;99.90;;;;;;5015215;28;20497;-80
2023/01/23 10:54:10;;;;;;;31.40;17.87;;;4.50;99.90;;;;;;5013395;28;20290;-81
2023/01/23 10:56:47;;;;;;;28.90;18.97;;;4.60;99.90;;;;;;5020438;28;20202;-81
2023/01/23 10:59:24;;;;;;;27.50;18.87;;;4.60;99.90;;;;;;5015486;28;20215;-81
2023/01/23 11:02:18;;;;;;;30.90;19.10;;;4.60;99.90;;;;;;5017167;28;20895;-81
2023/01/23 11:04:47;;;;;;;24.33;16.37;;;4.60;99.90;;;;;;5015352;28;20191;-81
2023/01/23 11:07:17;;;;;;;23.70;18.23;;;4.70;99.90;;;;;;5010800;28;20576;-79
2023/01/23 11:09:49;;;;;;;24.90;17.70;;;4.80;99.90;;;;;;5018420;28;20314;-80
2023/01/23 11:12:19;;;;;;;28.90;17.93;;;4.80;99.90;;;;;;5020696;28;20497;-82
2023/01/23 11:14:46;;;;;;;29.30;17.77;;;4.80;99.90;;;;;;5017421;28;20234;-82
2023/01/23 11:17:23;;;;;;;25.97;18.00;;;4.80;99.90;;;;;;5023653;28;20214;-85
2023/01/23 11:19:53;;;;;;;27.13;18.93;;;4.90;99.90;;;;;;5024673;28;20879;-79
2023/01/23 11:22:31;;;;;;;23.70;16.90;;;4.90;99.90;;;;;;5022734;28;20282;-84
2023/01/23 11:24:58;;;;;;;24.83;16.07;;;4.90;99.90;;;;;;5025983;28;20760;-82
2023/01/23 11:27:28;;;;;;;28.40;17.03;;;5.00;99.90;;;;;;5015710;28;20231;-82
2023/01/23 11:30:30;;;;;;;25.30;18.13;;;5.00;99.90;;;;;;5018494;28;20198;-82
2023/01/23 11:32:59;;;;;;;25.13;17.10;;;5.10;99.90;;;;;;5014697;28;20209;-81
2023/01/23 11:35:44;;;;;;;22.40;16.93;;;5.10;99.90;;;;;;5041229;22;20232;-82
2023/01/23 11:38:17;;;;;;;22.00;15.53;;;5.10;99.90;;;;;;5033471;28;20225;-82
2023/01/23 11:40:43;;;;;;;20.17;15.10;;;5.10;99.90;;;;;;5029265;28;20210;-82
2023/01/23 11:43:14;;;;;;;22.50;15.63;;;5.10;99.90;;;;;;5038317;28;20240;-81
2023/01/23 11:45:50;;;;;;;21.20;14.47;;;5.10;99.90;;;;;;5027437;28;20221;-81
2023/01/23 11:48:33;;;;;;;21.03;15.03;;;5.10;99.90;;;;;;5038371;28;20316;-81
2023/01/23 11:51:09;;;;;;;18.13;14.53;;;5.10;99.90;;;;;;5037991;28;20294;-81
2023/01/23 11:53:49;;;;;;;22.53;14.60;;;5.10;99.90;;;;;;5031838;28;20214;-81
2023/01/23 11:56:43;;;;;;;22.13;15.00;;;5.20;99.90;;;;;;5033704;28;20305;-81
2023/01/23 11:59:29;;;;;;;20.80;14.53;;;5.20;99.90;;;;;;5031988;28;20219;-80
2023/01/23 12:02:32;;;;;;;19.40;14.17;;;5.20;99.90;;;;;;5044141;28;20214;-80
2023/01/23 12:05:29;;;;;;;16.57;13.77;;;5.20;99.90;;;;;;5030109;28;20228;-81
2023/01/23 12:08:11;;;;;;;21.80;14.70;;;5.30;99.90;;;;;;5042570;28;20254;-81
2023/01/23 12:10:49;;;;;;;17.03;12.97;;;5.20;99.90;;;;;;5041341;28;20221;-81
2023/01/23 12:13:34;;;;;;;19.27;13.57;;;5.20;99.90;;;;;;5037981;28;20293;-86
2023/01/23 12:16:13;;;;;;;18.80;12.73;;;5.20;99.90;;;;;;5041973;28;20212;-82
2023/01/23 12:18:46;;;;;;;17.83;13.83;;;5.20;99.90;;;;;;5037756;28;20288;-83
2023/01/23 12:21:19;;;;;;;16.93;13.87;;;5.20;99.90;;;;;;5039623;28;20789;-85
2023/01/23 12:24:17;;;;;;;14.47;10.30;;;5.30;99.90;;;;;;5033886;28;20215;-84
2023/01/23 12:26:59;;;;;;;12.83;10.27;;;5.20;99.90;;;;;;5042865;28;20209;-85
2023/01/23 12:29:48;;;;;;;12.93;10.40;;;5.30;99.90;;;;;;5041411;28;20215;-83
2023/01/23 12:32:35;;;;;;;16.50;11.80;;;5.30;99.90;;;;;;5042041;28;20305;-84
2023/01/23 12:35:16;;;;;;;14.40;10.73;;;5.30;99.90;;;;;;5048196;28;20240;-85
2023/01/23 12:38:02;;;;;;;14.77;9.33;;;5.20;99.90;;;;;;5042103;28;20221;-85
2023/01/23 12:40:37;;;;;;;11.47;9.03;;;5.10;99.90;;;;;;5037184;28;20224;-83
2023/01/23 12:43:11;;;;;;;10.20;9.00;;;5.20;99.90;;;;;;5047945;28;20213;-86
2023/01/23 12:45:45;;;;;;;13.63;10.00;;;5.30;99.90;;;;;;5043987;28;20217;-85
2023/01/23 12:48:16;;;;;;;11.50;9.00;;;5.30;99.90;;;;;;5038659;28;20226;-81
2023/01/23 12:50:46;;;;;;;11.60;9.00;;;5.30;99.90;;;;;;5040828;28;20480;-82
2023/01/23 12:53:15;;;;;;;8.10;6.20;;;5.30;99.90;;;;;;5044556;28;20912;-80
2023/01/23 12:55:53;;;;;;;5.80;4.67;;;5.20;99.90;;;;;;5036185;28;20230;-82
2023/01/23 12:58:23;;;;;;;6.17;4.63;;;5.20;99.90;;;;;;5041697;28;20846;-87
2023/01/23 13:01:00;;;;;;;6.67;4.70;;;5.20;99.90;;;;;;5033499;28;20206;-81
2023/01/23 13:03:44;;;;;;;7.50;5.73;;;5.20;99.90;;;;;;5033471;28;20210;-81
2023/01/23 13:06:33;;;;;;;8.53;5.37;;;5.20;99.90;;;;;;5037234;28;20562;-81